Airfield :
LOGIN :

Register | Disclaimer

   EN    FR    IT 

 










Legend :    VFR   Marginal VFR   IFR   Intensive IFR   Very Intensive IFR
Visi :
Ceiling :
>= 8 km
>= 3000ft
5 to 8 km
1000 to 3000 ft
1500m to 5 km
500 to 1000 ft
800 to 1500m
200 to 500 ft
< 800m
< 200 ft
Symbols :   Thunderstorms  Fog  Heavy snow  Heavy precipitations  Wind > 20 kt
SIGMETs :     Misc.  Thunderstorms  Icing  Turbulence  Mountain Waves  Volcanic Ashes






- Airport Elevation : 124 ft
- IATA code : RNS


LFRN - Rennes

CURRENT METAR :
  • 250330Z AUTO 24003KT 9999 FEW021 BKN041 OVC050 14/12 Q1022 TEMPO 3000 DZ BR BKN008

EXPIRED METARs :
  • 250300Z AUTO 19004KT 9999 BKN027 BKN035 OVC041 14/13 Q1022 TEMPO 3000 DZ BR BKN008
  • 250230Z AUTO 21003KT 9999 OVC030 13/12 Q1022 TEMPO 3000 DZ BR BKN008
  • 250200Z AUTO 19003KT 9999 BKN029 13/12 Q1022 TEMPO 3000 DZ BR BKN008
  • 250130Z AUTO 18003KT 9999 FEW040 13/12 Q1022 TEMPO 3000 DZ BR BKN008
  • 250100Z AUTO 26002KT CAVOK 14/12 Q1023 NOSIG

TAF TAF LFRN
Valid from the 25 at 00:00 until the 26 at 00:00 UTC


242300Z 2500/2524 VRB05KT 9999 BKN030
BECMG 2500/2503 BKN015
PROB40
TEMPO 2503/2508 3000 DZ BR BKN008
TEMPO 2513/2524 4000 RADZ BKN010
ATIS : +33 2 99 67 72 50



MET'MAP, your aeronautical weather chart ! - Copyright ORBIFLY December 2007 - Disclaimer

ORBIFLY MET'MAP TEAM :

Programming & Development : Alexandra Zaïnal
Concept & original design : Baudouin d'Aumeries
Assistance for programming : Marc-Olivier Méhu
Technical & hardware support : Manuel Goepfert

Contact : metmap@orbifly.com




SOURCES & CREDITS :

   NOAA